createdAt,value
2023-05-21T07:19:19.397Z,18.00
2023-05-21T07:22:07.850Z,18.20
2023-05-21T07:24:56.367Z,18.30
2023-05-21T07:27:44.759Z,18.50
2023-05-21T07:30:33.277Z,18.50
2023-05-21T07:33:22.730Z,18.60
2023-05-21T07:36:12.563Z,18.50
2023-05-21T07:39:01.710Z,18.50
2023-05-21T07:41:50.245Z,18.40
2023-05-21T07:44:38.760Z,18.40
2023-05-21T07:47:27.400Z,18.40
2023-05-21T07:50:16.155Z,18.30
2023-05-21T07:53:06.014Z,18.40
2023-05-21T07:55:54.465Z,18.50
2023-05-21T07:58:45.663Z,18.70
2023-05-21T08:01:34.442Z,18.80
2023-05-21T08:04:23.139Z,19.00
2023-05-21T08:07:12.946Z,19.20
2023-05-21T08:10:03.198Z,19.30
2023-05-21T08:12:51.754Z,19.40
2023-05-21T08:15:40.413Z,19.50
2023-05-21T08:18:28.856Z,19.60
2023-05-21T08:21:17.707Z,19.60
2023-05-21T08:24:06.446Z,19.60
2023-05-21T08:26:56.454Z,19.60
2023-05-21T08:29:44.947Z,19.50
2023-05-21T08:32:33.466Z,19.50
2023-05-21T08:35:22.013Z,19.40
2023-05-21T08:38:10.586Z,19.30
2023-05-21T08:41:00.075Z,19.40
2023-05-21T08:43:55.773Z,19.30
2023-05-21T08:46:46.514Z,19.30
2023-05-21T08:49:36.248Z,19.20
2023-05-21T08:52:26.597Z,19.10
2023-05-21T08:55:15.488Z,19.30
2023-05-21T08:58:05.880Z,19.40
2023-05-21T09:00:56.133Z,19.60
2023-05-21T09:03:45.409Z,19.80
2023-05-21T09:06:34.082Z,20.00
2023-05-21T09:09:28.329Z,20.10
2023-05-21T09:12:16.832Z,20.10
2023-05-21T09:15:06.469Z,20.10
2023-05-21T09:17:57.598Z,20.20
2023-05-21T09:20:46.425Z,20.20
2023-05-21T09:23:34.950Z,20.20
2023-05-21T09:26:23.672Z,20.20
2023-05-21T09:29:14.407Z,20.30
2023-05-21T09:32:08.091Z,20.40
2023-05-21T09:34:57.908Z,20.50
2023-05-21T09:37:49.393Z,20.70
2023-05-21T09:43:27.050Z,20.90
2023-05-21T09:46:15.588Z,21.10
2023-05-21T09:49:04.112Z,21.20
2023-05-21T09:51:56.486Z,21.40
2023-05-21T09:54:45.932Z,21.50
2023-05-21T09:57:34.434Z,21.50
2023-05-21T10:00:24.195Z,21.60
2023-05-21T10:03:15.034Z,21.60
2023-05-21T10:06:03.996Z,21.60
2023-05-21T10:08:57.074Z,21.60
2023-05-21T10:11:46.486Z,21.50
2023-05-21T10:14:35.933Z,21.60
2023-05-21T10:17:25.990Z,21.70
2023-05-21T10:20:14.565Z,21.80
2023-05-21T10:23:03.549Z,21.80
2023-05-21T10:25:55.026Z,21.80
2023-05-21T10:34:24.543Z,22.00
2023-05-21T10:37:14.436Z,22.00
2023-05-21T10:43:17.545Z,22.10
2023-05-21T10:46:32.170Z,22.30
2023-05-21T10:49:36.348Z,22.40
2023-05-21T10:52:45.310Z,22.60
2023-05-21T10:55:44.198Z,22.70
2023-05-21T10:59:22.326Z,22.90
2023-05-21T11:02:15.699Z,23.20
2023-05-21T11:05:04.659Z,23.40
2023-05-21T11:07:57.341Z,23.50
2023-05-21T11:10:46.057Z,23.60
2023-05-21T11:13:48.849Z,23.70
2023-05-21T11:16:37.795Z,23.70
2023-05-21T11:22:26.124Z,23.80
2023-05-21T11:25:15.545Z,23.90
2023-05-21T11:28:09.424Z,24.10
2023-05-21T11:31:25.806Z,24.20
2023-05-21T11:34:14.857Z,24.30
2023-05-21T11:37:27.852Z,24.20
2023-05-21T11:40:26.696Z,24.00
2023-05-21T11:43:15.259Z,23.90
2023-05-21T11:46:04.134Z,23.90
2023-05-21T11:48:54.959Z,24.10
2023-05-21T11:51:44.649Z,24.30
2023-05-21T11:54:39.367Z,24.60
2023-05-21T11:57:31.315Z,24.70
2023-05-21T12:00:19.783Z,24.90
2023-05-21T12:06:06.655Z,25.60
2023-05-21T12:08:58.274Z,25.60
2023-05-21T12:11:48.492Z,25.70
2023-05-21T12:14:37.270Z,25.90
2023-05-21T12:17:28.161Z,26.00
2023-05-21T12:20:17.164Z,26.20
2023-05-21T12:23:05.805Z,26.40
2023-05-21T12:25:54.464Z,26.50
2023-05-21T12:28:44.351Z,26.50
2023-05-21T12:31:33.034Z,26.40
2023-05-21T12:34:41.592Z,26.30
2023-05-21T12:37:32.606Z,26.50
2023-05-21T12:40:22.205Z,26.60
2023-05-21T12:43:10.860Z,26.60
2023-05-21T12:48:51.567Z,26.90
2023-05-21T12:51:40.767Z,26.90
2023-05-21T12:54:35.153Z,26.80
2023-05-21T12:57:24.860Z,26.80
2023-05-21T13:00:14.394Z,26.60
2023-05-21T13:03:06.570Z,26.60
2023-05-21T13:05:59.923Z,26.30
2023-05-21T13:08:48.351Z,26.30
2023-05-21T13:11:36.786Z,26.30
2023-05-21T13:14:25.272Z,26.20
2023-05-21T13:17:13.691Z,26.20
2023-05-21T13:20:12.433Z,26.30
2023-05-21T13:23:03.402Z,26.50
2023-05-21T13:25:53.400Z,26.80
2023-05-21T13:28:42.726Z,27.00
2023-05-21T13:31:31.370Z,27.10
2023-05-21T13:34:19.873Z,27.10
2023-05-21T13:37:09.856Z,27.20
2023-05-21T13:39:58.555Z,27.20
2023-05-21T13:42:48.803Z,27.20
2023-05-21T13:45:37.245Z,27.20
2023-05-21T13:48:25.672Z,27.30
2023-05-21T13:51:19.894Z,27.30
2023-05-21T13:54:15.779Z,27.40
2023-05-21T13:57:04.692Z,27.50
2023-05-21T13:59:53.204Z,27.60
2023-05-21T14:02:43.310Z,27.70
2023-05-21T14:05:31.933Z,27.70
2023-05-21T14:08:20.950Z,27.80
2023-05-21T14:11:10.791Z,28.00
2023-05-21T14:13:59.501Z,27.90
2023-05-21T14:16:48.217Z,27.80
2023-05-21T14:19:36.805Z,27.50
2023-05-21T16:57:27.520Z,25.20
2023-05-21T17:00:18.168Z,25.10
2023-05-21T17:03:06.829Z,25.00
2023-05-21T17:05:55.387Z,24.90
2023-05-21T17:08:43.869Z,24.80
2023-05-21T17:11:32.583Z,24.70
2023-05-21T17:14:33.197Z,24.70
2023-05-21T17:20:14.216Z,24.50
2023-05-21T17:40:04.369Z,24.20
2023-05-21T17:42:53.105Z,24.10
2023-05-21T17:45:41.555Z,24.00
2023-05-21T17:48:30.099Z,23.90
2023-05-21T17:51:20.054Z,23.90
2023-05-21T17:54:09.019Z,23.90
2023-05-21T17:56:57.714Z,23.80
2023-05-21T17:59:46.171Z,23.80
2023-05-21T18:02:34.643Z,23.70
2023-05-21T18:05:23.589Z,23.60
2023-05-21T18:08:13.404Z,23.60
2023-05-21T18:11:02.173Z,23.50
2023-05-21T18:13:50.684Z,23.50
2023-05-21T18:16:39.239Z,23.40
2023-05-21T18:19:27.821Z,23.40
2023-05-21T18:22:16.347Z,23.30
2023-05-21T18:25:07.038Z,23.30
2023-05-21T18:27:55.630Z,23.20
2023-05-21T18:30:44.127Z,23.20
2023-05-21T18:33:32.616Z,23.10
2023-05-21T18:36:21.057Z,23.00
2023-05-21T18:39:10.593Z,23.00
2023-05-21T18:42:12.193Z,22.90
2023-05-21T18:45:07.920Z,22.90
2023-05-21T18:47:56.450Z,22.80
2023-05-21T18:50:44.968Z,22.80
2023-05-21T18:53:33.452Z,22.70
2023-05-21T18:56:22.526Z,22.70
2023-05-21T18:59:12.350Z,22.60
2023-05-21T19:02:00.782Z,22.60
2023-05-21T19:04:49.827Z,23.10
2023-05-21T19:07:38.315Z,22.50
2023-05-21T19:10:26.834Z,22.40
2023-05-21T19:13:15.478Z,22.30
2023-05-21T19:16:10.868Z,22.30
2023-05-21T19:18:59.567Z,22.30
2023-05-21T19:21:48.055Z,22.30
2023-05-21T19:24:36.554Z,22.20
2023-05-21T19:27:25.042Z,22.30
2023-05-21T19:30:14.100Z,22.20
2023-05-21T19:35:52.884Z,22.20
2023-05-21T19:38:48.126Z,22.20
2023-05-21T19:41:36.577Z,22.20
2023-05-21T19:44:25.079Z,22.20
2023-05-21T19:55:41.998Z,22.10
2023-05-21T19:58:30.855Z,22.10
2023-05-21T20:01:19.398Z,22.00
2023-05-21T20:04:07.970Z,22.00
2023-05-21T20:06:57.844Z,22.00
2023-05-21T20:09:46.631Z,22.00
2023-05-21T20:12:35.621Z,21.90
2023-05-21T20:15:24.159Z,21.90
2023-05-21T20:18:13.254Z,21.90
2023-05-21T20:23:52.583Z,21.80
2023-05-21T20:26:41.071Z,21.70
2023-05-21T20:29:29.953Z,21.60
2023-05-21T20:32:18.538Z,21.60
2023-05-21T20:35:09.968Z,21.60
2023-05-21T20:37:58.606Z,21.50
